Time;durP1;ratioP1;P1;durP2;ratioP2;P2;SDS_P1;SDS_P2;PMS_P1;PMS_P2;Temp;Humidity;BMP_temperature;BMP_pressure;BME280_temperature;BME280_humidity;BME280_pressure;Samples;Min_cycle;Max_cycle;Signal;HPM_P1;HPM_P2
2023/08/10 00:02:28;;;;;;;7.23;3.53;;;;;;;;;;5135743;27;20445;-63
2023/08/10 00:04:55;;;;;;;5.07;3.77;;;;;;;;;;5135616;27;20538;-63
2023/08/10 00:07:22;;;;;;;3.83;3.10;;;;;;;;;;5135717;27;20445;-64
2023/08/10 00:09:50;;;;;;;4.60;3.50;;;;;;;;;;5135842;27;20568;-63
2023/08/10 00:12:17;;;;;;;4.97;3.40;;;;;;;;;;5135862;27;20441;-63
2023/08/10 00:14:44;;;;;;;5.90;3.10;;;;;;;;;;5135322;27;20460;-63
2023/08/10 00:17:11;;;;;;;7.53;3.57;;;;;;;;;;5135702;27;20531;-63
2023/08/10 00:19:40;;;;;;;6.63;4.50;;;;;;;;;;5135435;27;20437;-63
2023/08/10 00:22:07;;;;;;;7.23;3.40;;;;;;;;;;5135380;27;20448;-62
2023/08/10 00:24:34;;;;;;;9.00;3.10;;;;;;;;;;5135364;27;20476;-61
2023/08/10 00:27:02;;;;;;;6.73;3.33;;;;;;;;;;5135364;27;20859;-61
2023/08/10 00:29:29;;;;;;;5.77;3.00;;;;;;;;;;5135176;27;20518;-62
2023/08/10 00:31:56;;;;;;;3.90;3.50;;;;;;;;;;5134866;27;20524;-62
2023/08/10 00:34:23;;;;;;;6.77;3.00;;;;;;;;;;5135486;27;20497;-62
2023/08/10 00:36:52;;;;;;;5.00;3.63;;;;;;;;;;5134883;27;20488;-63
2023/08/10 00:39:19;;;;;;;7.60;3.10;;;;;;;;;;5134978;27;20448;-62
2023/08/10 00:41:46;;;;;;;4.37;3.33;;;;;;;;;;5135444;27;20885;-62
2023/08/10 00:44:16;;;;;;;5.13;2.77;;;;;;;;;;5135924;27;20540;-62
2023/08/10 00:46:43;;;;;;;8.73;3.17;;;;;;;;;;5135099;27;20483;-62
2023/08/10 00:49:11;;;;;;;5.63;3.20;;;;;;;;;;5135184;27;20523;-62
2023/08/10 00:51:38;;;;;;;9.40;3.40;;;;;;;;;;5135066;27;20592;-62
2023/08/10 00:54:07;;;;;;;10.10;4.17;;;;;;;;;;5135168;27;20473;-62
2023/08/10 00:56:34;;;;;;;4.60;3.00;;;;;;;;;;5134750;27;20555;-62
2023/08/10 00:59:01;;;;;;;7.17;3.27;;;;;;;;;;5134799;27;20518;-63
2023/08/10 01:01:29;;;;;;;5.60;3.20;;;;;;;;;;5134717;27;20477;-62
2023/08/10 01:03:56;;;;;;;8.87;3.37;;;;;;;;;;5135129;27;20835;-63
2023/08/10 01:06:25;;;;;;;4.77;3.27;;;;;;;;;;5134928;27;20444;-62
2023/08/10 01:08:56;;;;;;;4.80;3.00;;;;;;;;;;5135072;27;20446;-62
2023/08/10 01:11:28;;;;;;;4.20;3.17;;;;;;;;;;5134639;27;20477;-62
2023/08/10 01:14:01;;;;;;;6.07;2.93;;;;;;;;;;5135073;27;20507;-62
2023/08/10 01:16:29;;;;;;;7.53;3.53;;;;;;;;;;5133911;27;20545;-62
2023/08/10 01:18:57;;;;;;;8.40;4.17;;;;;;;;;;5134575;27;20437;-62
2023/08/10 01:21:38;;;;;;;4.13;3.17;;;;;;;;;;5134548;27;20526;-62
2023/08/10 01:24:10;;;;;;;5.33;3.30;;;;;;;;;;5134747;27;20427;-62
2023/08/10 01:26:39;;;;;;;5.53;3.00;;;;;;;;;;5134016;27;20432;-62
2023/08/10 01:29:07;;;;;;;6.00;3.73;;;;;;;;;;5133917;27;20441;-62
2023/08/10 01:31:34;;;;;;;6.10;3.60;;;;;;;;;;5133852;27;20483;-62
2023/08/10 01:34:01;;;;;;;4.00;3.57;;;;;;;;;;5133953;27;20515;-62
2023/08/10 01:36:28;;;;;;;5.57;3.70;;;;;;;;;;5133748;27;20970;-62
2023/08/10 01:38:55;;;;;;;4.43;3.53;;;;;;;;;;5133613;27;20540;-62
2023/08/10 01:41:23;;;;;;;5.40;3.60;;;;;;;;;;5133479;27;20474;-62
2023/08/10 01:43:51;;;;;;;11.37;3.40;;;;;;;;;;5134119;27;20809;-63
2023/08/10 01:46:21;;;;;;;6.10;3.73;;;;;;;;;;5133752;27;20532;-62
2023/08/10 01:48:50;;;;;;;3.30;2.43;;;;;;;;;;5133733;27;20520;-63
2023/08/10 01:51:18;;;;;;;3.47;3.17;;;;;;;;;;5133351;27;20576;-62
2023/08/10 01:53:47;;;;;;;7.27;3.40;;;;;;;;;;5134124;27;20514;-63
2023/08/10 01:56:14;;;;;;;8.43;4.10;;;;;;;;;;5134017;27;20532;-63
2023/08/10 01:58:41;;;;;;;6.00;3.73;;;;;;;;;;5133376;27;20432;-63
2023/08/10 02:01:10;;;;;;;7.03;3.77;;;;;;;;;;5134184;27;20516;-63
2023/08/10 02:03:37;;;;;;;7.83;3.73;;;;;;;;;;5134225;27;20810;-62
2023/08/10 02:06:04;;;;;;;11.60;4.10;;;;;;;;;;5133946;27;20472;-62
2023/08/10 02:08:32;;;;;;;6.27;3.43;;;;;;;;;;5133540;28;20476;-62
2023/08/10 02:10:59;;;;;;;14.00;3.80;;;;;;;;;;5134066;28;20474;-62
2023/08/10 02:13:26;;;;;;;4.53;3.17;;;;;;;;;;5133517;28;20473;-63
2023/08/10 02:15:53;;;;;;;5.30;3.23;;;;;;;;;;5133678;28;20522;-62
2023/08/10 02:18:22;;;;;;;4.07;3.30;;;;;;;;;;5133587;28;20505;-62
2023/08/10 02:20:49;;;;;;;4.13;3.50;;;;;;;;;;5133475;28;20929;-62
2023/08/10 02:23:16;;;;;;;4.27;3.83;;;;;;;;;;5133743;28;20524;-62
2023/08/10 02:25:44;;;;;;;7.10;3.90;;;;;;;;;;5133738;28;20873;-62
2023/08/10 02:28:11;;;;;;;9.53;4.20;;;;;;;;;;5135209;27;20441;-62
2023/08/10 02:30:38;;;;;;;4.10;3.57;;;;;;;;;;5137759;27;20571;-63
2023/08/10 02:33:06;;;;;;;4.53;3.83;;;;;;;;;;5138433;27;20433;-62
2023/08/10 02:35:34;;;;;;;9.27;3.90;;;;;;;;;;5137150;27;20447;-63
2023/08/10 02:38:02;;;;;;;4.40;3.63;;;;;;;;;;5137292;27;20516;-63
2023/08/10 02:40:29;;;;;;;10.20;4.20;;;;;;;;;;5137326;27;20443;-63
2023/08/10 02:42:56;;;;;;;5.20;3.93;;;;;;;;;;5137869;27;20468;-62
2023/08/10 02:45:23;;;;;;;4.33;3.93;;;;;;;;;;5137233;27;20432;-62
2023/08/10 02:47:50;;;;;;;6.90;4.00;;;;;;;;;;5137634;27;20819;-62
2023/08/10 02:50:18;;;;;;;4.43;4.03;;;;;;;;;;5137356;27;20468;-63
2023/08/10 02:52:47;;;;;;;7.63;3.30;;;;;;;;;;5137387;27;20442;-62
2023/08/10 02:55:15;;;;;;;9.23;4.70;;;;;;;;;;5137411;27;20544;-62
2023/08/10 02:57:42;;;;;;;7.23;4.07;;;;;;;;;;5136843;27;20981;-62
2023/08/10 03:00:12;;;;;;;5.23;3.63;;;;;;;;;;5137268;27;20505;-62
2023/08/10 03:02:40;;;;;;;7.77;4.53;;;;;;;;;;5136917;27;20437;-62
2023/08/10 03:05:07;;;;;;;7.07;3.77;;;;;;;;;;5137128;27;20527;-62
2023/08/10 03:07:35;;;;;;;4.03;3.53;;;;;;;;;;5136714;27;20512;-62
2023/08/10 03:10:03;;;;;;;6.00;3.70;;;;;;;;;;5137069;27;20487;-63
2023/08/10 03:12:30;;;;;;;12.63;4.47;;;;;;;;;;5136931;27;20567;-62
2023/08/10 03:14:58;;;;;;;10.07;3.90;;;;;;;;;;5137062;27;20531;-62
2023/08/10 03:17:25;;;;;;;4.67;3.60;;;;;;;;;;5136678;27;20465;-62
2023/08/10 03:19:52;;;;;;;7.03;3.30;;;;;;;;;;5137608;27;20441;-62
2023/08/10 03:22:19;;;;;;;5.53;3.57;;;;;;;;;;5137190;27;20515;-62
2023/08/10 03:24:46;;;;;;;7.33;3.90;;;;;;;;;;5137226;27;20523;-62
2023/08/10 03:27:15;;;;;;;5.33;4.50;;;;;;;;;;5136757;27;20573;-62
2023/08/10 03:29:42;;;;;;;10.37;4.57;;;;;;;;;;5136336;27;20520;-62
2023/08/10 03:32:09;;;;;;;6.83;4.03;;;;;;;;;;5136237;27;21002;-62
2023/08/10 03:34:37;;;;;;;14.50;3.80;;;;;;;;;;5136437;27;20922;-62
2023/08/10 03:37:04;;;;;;;7.30;5.23;;;;;;;;;;5136162;27;20520;-69
2023/08/10 03:39:31;;;;;;;5.23;3.93;;;;;;;;;;5135422;27;20953;-63
2023/08/10 03:41:58;;;;;;;7.10;3.30;;;;;;;;;;5135951;27;20591;-63
2023/08/10 03:44:27;;;;;;;10.27;4.27;;;;;;;;;;5136548;27;20543;-63
2023/08/10 03:46:54;;;;;;;10.63;4.03;;;;;;;;;;5136226;27;20490;-63
2023/08/10 03:49:22;;;;;;;6.10;3.87;;;;;;;;;;5136796;27;20479;-63
2023/08/10 03:51:51;;;;;;;5.80;4.10;;;;;;;;;;5134617;27;20476;-63
2023/08/10 03:54:18;;;;;;;6.97;4.10;;;;;;;;;;5135315;27;20469;-63
2023/08/10 03:56:45;;;;;;;4.13;3.73;;;;;;;;;;5135171;27;20438;-63
2023/08/10 03:59:12;;;;;;;9.83;4.27;;;;;;;;;;5134933;27;20464;-63
2023/08/10 04:01:41;;;;;;;7.20;4.20;;;;;;;;;;5135082;27;20801;-63
2023/08/10 04:04:08;;;;;;;12.13;4.60;;;;;;;;;;5135050;27;20448;-63
2023/08/10 04:06:36;;;;;;;6.43;4.47;;;;;;;;;;5134965;27;20468;-62
2023/08/10 04:09:04;;;;;;;7.80;4.10;;;;;;;;;;5135508;27;20797;-63
2023/08/10 04:11:31;;;;;;;11.50;4.13;;;;;;;;;;5135286;27;20468;-63
2023/08/10 04:13:59;;;;;;;10.07;4.37;;;;;;;;;;5135758;27;20438;-63
2023/08/10 04:16:26;;;;;;;6.97;3.90;;;;;;;;;;5135686;27;20444;-65
2023/08/10 04:18:55;;;;;;;7.37;3.97;;;;;;;;;;5135492;27;20526;-63
2023/08/10 04:21:22;;;;;;;10.53;4.50;;;;;;;;;;5135589;27;20444;-62
2023/08/10 04:23:49;;;;;;;5.80;4.03;;;;;;;;;;5134947;27;20525;-62
2023/08/10 04:26:17;;;;;;;11.23;4.50;;;;;;;;;;5135370;27;20790;-62
2023/08/10 04:28:45;;;;;;;7.67;3.80;;;;;;;;;;5135152;27;20448;-62
2023/08/10 04:31:12;;;;;;;13.63;4.27;;;;;;;;;;5134614;27;20899;-62
2023/08/10 04:33:40;;;;;;;6.50;3.87;;;;;;;;;;5135367;27;20441;-62
2023/08/10 04:36:08;;;;;;;4.67;3.93;;;;;;;;;;5135270;27;20531;-61
2023/08/10 04:38:36;;;;;;;7.33;4.40;;;;;;;;;;5134754;27;20516;-61
2023/08/10 04:41:03;;;;;;;4.10;3.73;;;;;;;;;;5134604;27;20477;-62
2023/08/10 04:43:30;;;;;;;6.43;3.40;;;;;;;;;;5134573;27;20445;-61
2023/08/10 04:45:57;;;;;;;7.30;4.80;;;;;;;;;;5134629;27;20510;-63
2023/08/10 04:48:25;;;;;;;7.77;4.20;;;;;;;;;;5134927;27;20437;-62
2023/08/10 04:50:52;;;;;;;7.30;4.33;;;;;;;;;;5133818;27;20448;-62
2023/08/10 04:53:20;;;;;;;10.70;4.97;;;;;;;;;;5134108;27;20448;-62
2023/08/10 04:55:48;;;;;;;10.20;4.20;;;;;;;;;;5134429;27;20429;-62
2023/08/10 04:58:15;;;;;;;8.60;4.60;;;;;;;;;;5134499;27;20437;-62
2023/08/10 05:00:42;;;;;;;8.43;3.77;;;;;;;;;;5134667;27;20468;-62
2023/08/10 05:03:09;;;;;;;6.83;4.00;;;;;;;;;;5134139;27;20973;-62
2023/08/10 05:05:39;;;;;;;5.97;3.87;;;;;;;;;;5134765;27;20442;-62
2023/08/10 05:08:07;;;;;;;5.63;3.90;;;;;;;;;;5134425;27;20429;-62
2023/08/10 05:10:36;;;;;;;5.63;3.50;;;;;;;;;;5134530;27;20479;-62
2023/08/10 05:13:04;;;;;;;8.07;4.77;;;;;;;;;;5133892;27;20481;-62
2023/08/10 05:15:31;;;;;;;7.10;3.67;;;;;;;;;;5134137;27;21029;-62
2023/08/10 05:17:58;;;;;;;14.23;3.90;;;;;;;;;;5134001;27;20527;-62
2023/08/10 05:20:25;;;;;;;7.30;4.77;;;;;;;;;;5134470;27;20958;-62
2023/08/10 05:22:52;;;;;;;7.30;3.63;;;;;;;;;;5133866;27;20537;-62
2023/08/10 05:25:20;;;;;;;10.80;4.10;;;;;;;;;;5134248;27;20530;-62
2023/08/10 05:27:48;;;;;;;3.60;3.20;;;;;;;;;;5133740;27;20455;-62
2023/08/10 05:30:16;;;;;;;5.20;3.80;;;;;;;;;;5133833;27;20763;-62
2023/08/10 05:32:44;;;;;;;8.07;4.37;;;;;;;;;;5133653;27;20536;-63
2023/08/10 05:35:12;;;;;;;9.90;4.17;;;;;;;;;;5133483;27;20444;-62
2023/08/10 05:37:39;;;;;;;6.23;3.97;;;;;;;;;;5133620;27;20439;-62
2023/08/10 05:40:09;;;;;;;5.27;3.53;;;;;;;;;;5133434;27;20444;-62
2023/08/10 05:42:37;;;;;;;3.93;3.27;;;;;;;;;;5133851;27;20437;-63
2023/08/10 05:45:07;;;;;;;6.50;3.53;;;;;;;;;;5133326;27;20433;-62
2023/08/10 05:47:34;;;;;;;10.03;4.00;;;;;;;;;;5133552;27;20559;-63
2023/08/10 05:50:01;;;;;;;6.93;3.90;;;;;;;;;;5133766;27;20458;-63
2023/08/10 05:52:29;;;;;;;5.77;4.00;;;;;;;;;;5133826;27;20567;-62
2023/08/10 05:54:56;;;;;;;11.83;3.97;;;;;;;;;;5133443;27;20458;-63
2023/08/10 05:57:23;;;;;;;6.10;3.67;;;;;;;;;;5133768;27;20445;-62
2023/08/10 05:59:51;;;;;;;11.83;3.97;;;;;;;;;;5133080;27;20578;-63
2023/08/10 06:02:19;;;;;;;9.93;4.00;;;;;;;;;;5132945;27;20539;-63
2023/08/10 06:04:46;;;;;;;6.50;4.13;;;;;;;;;;5133442;27;20480;-63
2023/08/10 06:07:14;;;;;;;6.33;3.47;;;;;;;;;;5133421;27;20520;-63
2023/08/10 06:09:41;;;;;;;7.40;3.27;;;;;;;;;;5133303;28;20532;-63
2023/08/10 06:12:08;;;;;;;10.50;4.33;;;;;;;;;;5133945;28;20487;-63
2023/08/10 06:14:36;;;;;;;7.93;3.33;;;;;;;;;;5133205;28;20518;-63
2023/08/10 06:17:04;;;;;;;4.80;4.00;;;;;;;;;;5133939;28;20421;-63
2023/08/10 06:19:34;;;;;;;6.73;3.70;;;;;;;;;;5134053;28;20437;-63
2023/08/10 06:22:02;;;;;;;4.93;3.00;;;;;;;;;;5133351;28;20452;-62
2023/08/10 06:24:29;;;;;;;16.90;3.90;;;;;;;;;;5133363;28;20428;-62
2023/08/10 06:26:56;;;;;;;7.20;2.93;;;;;;;;;;5133059;28;20537;-62
2023/08/10 06:29:23;;;;;;;6.30;3.37;;;;;;;;;;5133237;28;20460;-62
2023/08/10 06:31:51;;;;;;;6.20;3.50;;;;;;;;;;5133434;28;20909;-62
2023/08/10 06:34:18;;;;;;;7.83;3.53;;;;;;;;;;5133143;28;20527;-62
2023/08/10 06:36:46;;;;;;;6.60;2.77;;;;;;;;;;5133412;28;20847;-63
2023/08/10 06:39:14;;;;;;;10.33;3.50;;;;;;;;;;5133059;28;20545;-63
2023/08/10 06:41:41;;;;;;;6.60;2.93;;;;;;;;;;5133357;28;20491;-63
2023/08/10 06:44:08;;;;;;;8.80;3.30;;;;;;;;;;5133379;28;20472;-63
2023/08/10 06:46:36;;;;;;;5.13;2.80;;;;;;;;;;5133260;28;20433;-63
2023/08/10 06:49:03;;;;;;;5.47;2.60;;;;;;;;;;5132903;28;20441;-63
2023/08/10 06:51:30;;;;;;;8.03;3.00;;;;;;;;;;5133275;28;20509;-63
2023/08/10 06:53:59;;;;;;;5.80;2.50;;;;;;;;;;5132825;28;20545;-63
2023/08/10 06:56:26;;;;;;;7.67;3.00;;;;;;;;;;5132955;28;20469;-63
2023/08/10 06:58:53;;;;;;;4.00;2.20;;;;;;;;;;5132435;28;20477;-63
2023/08/10 07:01:20;;;;;;;5.97;2.77;;;;;;;;;;5133140;28;20426;-63
2023/08/10 07:03:48;;;;;;;3.90;2.50;;;;;;;;;;5133062;28;20436;-63
2023/08/10 07:06:16;;;;;;;4.83;2.40;;;;;;;;;;5132997;28;20458;-64
2023/08/10 07:08:43;;;;;;;6.40;2.73;;;;;;;;;;5133339;28;20478;-63
2023/08/10 07:11:12;;;;;;;8.13;2.90;;;;;;;;;;5132913;28;20467;-63
2023/08/10 07:13:41;;;;;;;5.53;3.13;;;;;;;;;;5132718;27;20474;-63
2023/08/10 07:16:08;;;;;;;5.70;3.00;;;;;;;;;;5135879;27;20450;-63
2023/08/10 07:18:35;;;;;;;5.70;2.90;;;;;;;;;;5136864;27;20528;-63
2023/08/10 07:21:02;;;;;;;3.60;2.10;;;;;;;;;;5136600;27;20914;-62
2023/08/10 07:23:30;;;;;;;5.00;2.17;;;;;;;;;;5136806;27;20523;-63
2023/08/10 07:25:57;;;;;;;4.87;2.90;;;;;;;;;;5136358;27;20461;-63
2023/08/10 07:28:26;;;;;;;7.33;2.53;;;;;;;;;;5136707;27;20586;-63
2023/08/10 07:30:54;;;;;;;7.03;2.90;;;;;;;;;;5136677;27;20467;-63
2023/08/10 07:33:21;;;;;;;5.27;2.10;;;;;;;;;;5136801;27;20481;-63
2023/08/10 07:35:48;;;;;;;4.57;2.63;;;;;;;;;;5136360;27;20781;-63
2023/08/10 07:38:16;;;;;;;9.30;3.87;;;;;;;;;;5136550;27;20437;-63
2023/08/10 07:40:43;;;;;;;11.13;5.10;;;;;;;;;;5136526;27;20443;-64
2023/08/10 07:43:10;;;;;;;7.20;3.80;;;;;;;;;;5136508;27;20537;-63
2023/08/10 07:45:39;;;;;;;9.30;2.80;;;;;;;;;;5136595;27;20437;-63
2023/08/10 07:48:06;;;;;;;8.70;2.53;;;;;;;;;;5136421;27;20926;-63
2023/08/10 07:50:33;;;;;;;8.37;2.50;;;;;;;;;;5135914;27;20611;-63
2023/08/10 07:53:03;;;;;;;5.33;2.60;;;;;;;;;;5135867;27;21066;-63
2023/08/10 07:55:30;;;;;;;6.43;2.67;;;;;;;;;;5135447;27;20521;-63
2023/08/10 07:57:57;;;;;;;4.53;2.80;;;;;;;;;;5136102;27;20438;-63
2023/08/10 08:00:24;;;;;;;4.60;3.20;;;;;;;;;;5136104;27;20969;-63
2023/08/10 08:02:53;;;;;;;5.53;3.10;;;;;;;;;;5136045;27;20544;-63
2023/08/10 08:05:21;;;;;;;3.27;2.30;;;;;;;;;;5135686;27;20447;-63
2023/08/10 08:07:48;;;;;;;4.10;3.00;;;;;;;;;;5135551;27;20453;-63
2023/08/10 08:10:16;;;;;;;8.10;2.30;;;;;;;;;;5135878;27;20441;-63
2023/08/10 08:12:43;;;;;;;8.00;2.23;;;;;;;;;;5135837;27;20480;-63
2023/08/10 08:15:10;;;;;;;6.00;1.90;;;;;;;;;;5135150;27;20441;-63
2023/08/10 08:17:56;;;;;;;4.83;2.30;;;;;;;;;;5135481;27;20444;-63
2023/08/10 08:20:24;;;;;;;9.37;2.53;;;;;;;;;;5135227;27;20444;-63
2023/08/10 08:22:52;;;;;;;8.30;2.63;;;;;;;;;;5135045;27;20449;-63
2023/08/10 08:25:19;;;;;;;4.47;2.60;;;;;;;;;;5135100;27;20812;-63
2023/08/10 08:27:46;;;;;;;4.40;2.40;;;;;;;;;;5135352;27;20459;-63
2023/08/10 08:30:14;;;;;;;3.87;1.97;;;;;;;;;;5135226;27;20434;-63
2023/08/10 08:32:41;;;;;;;8.87;2.93;;;;;;;;;;5135342;27;20495;-63
2023/08/10 08:35:08;;;;;;;3.50;2.00;;;;;;;;;;5135240;27;20434;-63
2023/08/10 08:37:37;;;;;;;7.40;2.13;;;;;;;;;;5134894;27;20936;-63
2023/08/10 08:40:05;;;;;;;3.57;2.20;;;;;;;;;;5135125;27;20440;-63
2023/08/10 08:42:32;;;;;;;5.90;2.30;;;;;;;;;;5135480;27;20520;-63
2023/08/10 08:44:59;;;;;;;7.33;2.47;;;;;;;;;;5135171;27;20503;-63
2023/08/10 08:47:27;;;;;;;7.27;2.53;;;;;;;;;;5135169;27;20465;-63
2023/08/10 08:49:54;;;;;;;5.13;2.13;;;;;;;;;;5135844;27;20430;-63
2023/08/10 08:52:22;;;;;;;3.30;2.10;;;;;;;;;;5135272;27;20823;-62
2023/08/10 08:54:51;;;;;;;6.20;1.97;;;;;;;;;;5135055;27;20437;-62
2023/08/10 08:57:18;;;;;;;7.50;2.10;;;;;;;;;;5134902;27;20430;-63
2023/08/10 08:59:46;;;;;;;2.63;2.30;;;;;;;;;;5134791;27;20489;-63
2023/08/10 09:02:13;;;;;;;4.60;2.07;;;;;;;;;;5134329;27;20486;-63
2023/08/10 09:04:40;;;;;;;5.07;2.20;;;;;;;;;;5135068;27;20461;-63
2023/08/10 09:07:08;;;;;;;5.53;1.93;;;;;;;;;;5134668;27;20517;-63
2023/08/10 09:09:36;;;;;;;10.60;2.50;;;;;;;;;;5134947;27;20629;-63
2023/08/10 09:12:18;;;;;;;5.63;2.77;;;;;;;;;;5134539;27;20447;-63
2023/08/10 09:15:01;;;;;;;10.57;2.80;;;;;;;;;;5133525;27;20647;-63
2023/08/10 09:17:28;;;;;;;3.17;2.30;;;;;;;;;;5133982;27;20439;-63
2023/08/10 09:19:56;;;;;;;7.23;1.90;;;;;;;;;;5135007;27;20446;-63
2023/08/10 09:22:33;;;;;;;3.17;1.90;;;;;;;;;;5134294;27;20551;-63
2023/08/10 09:25:00;;;;;;;10.00;2.40;;;;;;;;;;5134323;27;20716;-63
2023/08/10 09:27:28;;;;;;;3.27;1.87;;;;;;;;;;5134160;27;20476;-63
2023/08/10 09:29:58;;;;;;;5.60;1.97;;;;;;;;;;5134324;27;20441;-63
2023/08/10 09:32:25;;;;;;;4.33;2.10;;;;;;;;;;5134179;27;20448;-63
2023/08/10 09:34:52;;;;;;;3.90;2.40;;;;;;;;;;5134175;27;20528;-63
2023/08/10 09:37:20;;;;;;;5.60;2.20;;;;;;;;;;5133941;27;20445;-63
2023/08/10 09:39:47;;;;;;;11.33;2.97;;;;;;;;;;5134451;27;20434;-63
2023/08/10 09:42:15;;;;;;;5.97;2.20;;;;;;;;;;5133809;27;20433;-63
2023/08/10 09:44:45;;;;;;;8.23;4.10;;;;;;;;;;5133851;27;20430;-63
2023/08/10 09:47:14;;;;;;;5.30;2.20;;;;;;;;;;5134095;27;20433;-64
2023/08/10 09:49:46;;;;;;;6.50;2.20;;;;;;;;;;5134193;27;20542;-63
2023/08/10 09:52:14;;;;;;;6.17;2.00;;;;;;;;;;5133820;27;20544;-64
2023/08/10 09:54:41;;;;;;;7.60;2.40;;;;;;;;;;5133801;27;20451;-64
2023/08/10 09:57:08;;;;;;;3.33;1.93;;;;;;;;;;5133719;27;20528;-64
2023/08/10 09:59:35;;;;;;;3.47;1.67;;;;;;;;;;5133811;27;20552;-64
2023/08/10 10:02:03;;;;;;;3.17;2.20;;;;;;;;;;5133713;27;20525;-63
2023/08/10 10:04:33;;;;;;;3.37;1.93;;;;;;;;;;5134457;27;20515;-64
2023/08/10 10:07:01;;;;;;;3.30;2.10;;;;;;;;;;5133570;27;20875;-63
2023/08/10 10:09:30;;;;;;;4.80;2.20;;;;;;;;;;5134343;27;20488;-63
2023/08/10 10:12:00;;;;;;;3.73;2.30;;;;;;;;;;5133992;28;20472;-63
2023/08/10 10:14:28;;;;;;;3.20;2.30;;;;;;;;;;5134141;28;20563;-63
2023/08/10 10:16:55;;;;;;;4.57;2.27;;;;;;;;;;5133787;28;20456;-63
2023/08/10 10:19:23;;;;;;;5.60;2.33;;;;;;;;;;5133904;28;20429;-63
2023/08/10 10:21:51;;;;;;;4.63;3.60;;;;;;;;;;5133865;28;20449;-63
2023/08/10 10:24:19;;;;;;;7.13;1.90;;;;;;;;;;5134115;28;20864;-63
2023/08/10 10:26:58;;;;;;;5.27;2.10;;;;;;;;;;5133354;28;20438;-63
2023/08/10 10:29:35;;;;;;;2.43;2.13;;;;;;;;;;5133652;28;20497;-63
2023/08/10 10:32:06;;;;;;;9.10;2.60;;;;;;;;;;5133849;28;20471;-63
2023/08/10 10:34:34;;;;;;;2.40;2.20;;;;;;;;;;5133872;28;20544;-63
2023/08/10 10:37:10;;;;;;;7.70;3.07;;;;;;;;;;5132948;28;20536;-63
2023/08/10 10:39:37;;;;;;;4.63;2.43;;;;;;;;;;5133132;28;20473;-63
2023/08/10 10:42:05;;;;;;;4.27;2.30;;;;;;;;;;5133309;28;20455;-63
2023/08/10 10:44:50;;;;;;;3.00;2.47;;;;;;;;;;5133363;28;20520;-62
2023/08/10 10:47:18;;;;;;;7.43;2.67;;;;;;;;;;5132798;28;20479;-63
2023/08/10 10:49:54;;;;;;;2.63;2.00;;;;;;;;;;5134656;27;20430;-63
2023/08/10 10:55:18;;;;;;;9.43;2.30;;;;;;;;;;5090063;27;20533;-62
2023/08/10 10:57:46;;;;;;;4.17;2.43;;;;;;;;;;5090207;28;20538;-62
2023/08/10 11:00:14;;;;;;;7.07;4.37;;;;;;;;;;5089964;28;20526;-62
2023/08/10 11:02:41;;;;;;;3.47;2.40;;;;;;;;;;5089971;28;20935;-63
2023/08/10 11:05:11;;;;;;;3.80;2.07;;;;;;;;;;5090241;28;20451;-63
2023/08/10 11:07:41;;;;;;;3.07;2.03;;;;;;;;;;5090151;28;20432;-62
2023/08/10 11:10:09;;;;;;;5.23;2.60;;;;;;;;;;5090156;28;20444;-62
2023/08/10 11:12:42;;;;;;;5.73;2.60;;;;;;;;;;5090316;28;20530;-62
2023/08/10 11:15:10;;;;;;;4.40;2.47;;;;;;;;;;5090040;28;20463;-63
2023/08/10 11:17:38;;;;;;;5.90;2.37;;;;;;;;;;5090368;28;20446;-63
2023/08/10 11:20:12;;;;;;;3.43;2.50;;;;;;;;;;5089458;28;20475;-63
2023/08/10 11:22:39;;;;;;;6.03;2.53;;;;;;;;;;5090128;28;20485;-63
2023/08/10 11:25:11;;;;;;;4.13;2.30;;;;;;;;;;5089313;28;20606;-63
2023/08/10 11:27:41;;;;;;;5.97;2.73;;;;;;;;;;5089353;28;20519;-64
2023/08/10 11:30:09;;;;;;;3.93;2.60;;;;;;;;;;5089527;28;20453;-63
2023/08/10 11:32:39;;;;;;;3.10;2.00;;;;;;;;;;5089758;28;20865;-62
2023/08/10 11:35:07;;;;;;;5.03;2.00;;;;;;;;;;5090019;28;20467;-63
2023/08/10 11:37:35;;;;;;;3.17;2.87;;;;;;;;;;5089450;28;20440;-63
2023/08/10 11:40:11;;;;;;;7.50;3.00;;;;;;;;;;5088983;28;20442;-63
2023/08/10 11:42:41;;;;;;;4.87;2.60;;;;;;;;;;5088882;28;20433;-62
2023/08/10 11:45:09;;;;;;;7.67;2.70;;;;;;;;;;5089280;28;20434;-63
2023/08/10 11:47:41;;;;;;;5.07;2.60;;;;;;;;;;5088873;28;20437;-63
2023/08/10 11:50:10;;;;;;;2.90;2.30;;;;;;;;;;5087223;28;20438;-63
2023/08/10 11:52:37;;;;;;;4.07;2.20;;;;;;;;;;5088756;28;20482;-63
2023/08/10 11:55:12;;;;;;;3.23;2.20;;;;;;;;;;5088297;28;20481;-64
2023/08/10 11:57:41;;;;;;;5.87;2.30;;;;;;;;;;5088591;28;20428;-64
2023/08/10 12:00:22;;;;;;;2.73;2.47;;;;;;;;;;5088320;28;20436;-64
2023/08/10 12:03:02;;;;;;;5.90;2.43;;;;;;;;;;5088030;28;20424;-64
2023/08/10 12:05:35;;;;;;;4.53;2.43;;;;;;;;;;5081450;28;20820;-64
2023/08/10 12:08:02;;;;;;;7.60;2.70;;;;;;;;;;5074827;28;20441;-64
2023/08/10 12:10:35;;;;;;;3.60;2.53;;;;;;;;;;5075457;28;20455;-64
2023/08/10 12:13:04;;;;;;;5.00;2.60;;;;;;;;;;5075311;28;20472;-64
2023/08/10 12:15:32;;;;;;;2.87;2.07;;;;;;;;;;5075338;28;20826;-64
2023/08/10 12:17:59;;;;;;;4.30;2.13;;;;;;;;;;5075965;28;20464;-64
2023/08/10 12:20:27;;;;;;;2.20;2.10;;;;;;;;;;5095466;28;20492;-64
2023/08/10 12:22:54;;;;;;;6.77;5.33;;;;;;;;;;5095067;28;20451;-65
2023/08/10 12:25:22;;;;;;;4.17;2.63;;;;;;;;;;5095214;28;20475;-64
2023/08/10 12:27:49;;;;;;;2.43;2.17;;;;;;;;;;5095150;28;20438;-64
2023/08/10 12:30:18;;;;;;;5.13;2.27;;;;;;;;;;5094763;28;20524;-64
2023/08/10 12:32:45;;;;;;;2.70;2.20;;;;;;;;;;5095909;28;20446;-64
2023/08/10 12:35:13;;;;;;;7.70;2.30;;;;;;;;;;5094148;28;20559;-64
2023/08/10 12:37:41;;;;;;;5.50;2.37;;;;;;;;;;5094766;28;20479;-65
2023/08/10 12:40:10;;;;;;;3.13;2.17;;;;;;;;;;5094015;28;20526;-63
2023/08/10 12:42:37;;;;;;;5.00;2.10;;;;;;;;;;5094120;28;20440;-63
2023/08/10 12:45:04;;;;;;;4.67;2.20;;;;;;;;;;5094400;28;20449;-63
2023/08/10 12:47:33;;;;;;;6.50;2.53;;;;;;;;;;5094431;28;20522;-63
2023/08/10 12:50:00;;;;;;;3.73;2.30;;;;;;;;;;5094219;28;20504;-63
2023/08/10 12:52:28;;;;;;;2.93;2.37;;;;;;;;;;5094906;28;20441;-64
2023/08/10 12:54:55;;;;;;;3.60;2.30;;;;;;;;;;5094661;28;20483;-64
2023/08/10 12:57:22;;;;;;;4.50;2.53;;;;;;;;;;5094725;28;20822;-64
2023/08/10 12:59:49;;;;;;;4.77;2.23;;;;;;;;;;5078850;28;20533;-63
2023/08/10 13:02:17;;;;;;;3.97;2.70;;;;;;;;;;5074114;28;20453;-63
2023/08/10 13:04:46;;;;;;;3.80;3.00;;;;;;;;;;5074449;28;20784;-63
2023/08/10 13:07:14;;;;;;;4.20;2.40;;;;;;;;;;5074268;28;20442;-63
2023/08/10 13:09:41;;;;;;;3.20;1.93;;;;;;;;;;5073945;28;20446;-64
2023/08/10 13:12:08;;;;;;;3.23;2.20;;;;;;;;;;5073258;28;20885;-64
2023/08/10 13:14:35;;;;;;;5.00;2.47;;;;;;;;;;5073986;28;20515;-64
2023/08/10 13:17:03;;;;;;;3.00;2.23;;;;;;;;;;5073785;28;20443;-63
2023/08/10 13:19:30;;;;;;;4.07;2.40;;;;;;;;;;5073569;28;20468;-63
2023/08/10 13:21:58;;;;;;;5.03;1.90;;;;;;;;;;5074379;28;20523;-64
2023/08/10 13:24:26;;;;;;;3.60;2.40;;;;;;;;;;5074044;28;20546;-65
2023/08/10 13:26:53;;;;;;;3.77;2.17;;;;;;;;;;5074195;28;20479;-64
2023/08/10 13:29:20;;;;;;;4.47;2.37;;;;;;;;;;5073326;28;20441;-64
2023/08/10 13:31:47;;;;;;;4.30;2.53;;;;;;;;;;5073426;28;20952;-64
2023/08/10 13:34:14;;;;;;;5.73;2.60;;;;;;;;;;5073752;28;20501;-64
2023/08/10 13:36:42;;;;;;;5.90;2.40;;;;;;;;;;5074017;28;20530;-64
2023/08/10 13:39:10;;;;;;;2.03;1.90;;;;;;;;;;5073509;28;20519;-64
2023/08/10 13:41:38;;;;;;;2.90;2.07;;;;;;;;;;5073886;28;20452;-63
2023/08/10 13:44:05;;;;;;;8.07;2.28;;;;;;;;;;5072958;28;20529;-63
2023/08/10 13:46:33;;;;;;;4.63;2.63;;;;;;;;;;5073748;28;20220;-63
2023/08/10 13:49:00;;;;;;;5.00;2.30;;;;;;;;;;5082183;28;20927;-63
2023/08/10 13:51:27;;;;;;;3.77;2.50;;;;;;;;;;5093154;28;20526;-63
2023/08/10 13:53:54;;;;;;;5.23;2.70;;;;;;;;;;5093350;28;20569;-64
2023/08/10 13:56:23;;;;;;;4.47;2.20;;;;;;;;;;5093331;28;20453;-63
2023/08/10 13:58:50;;;;;;;4.40;2.40;;;;;;;;;;5093658;28;20529;-64
2023/08/10 14:01:18;;;;;;;5.27;2.30;;;;;;;;;;5093694;28;20540;-64
2023/08/10 14:03:45;;;;;;;6.97;3.43;;;;;;;;;;5093380;28;20458;-65
2023/08/10 14:06:12;;;;;;;3.33;2.30;;;;;;;;;;5093305;28;20538;-64
2023/08/10 14:08:40;;;;;;;5.07;2.30;;;;;;;;;;5093357;28;20446;-64
2023/08/10 14:11:07;;;;;;;4.30;2.30;;;;;;;;;;5092954;28;20444;-64
2023/08/10 14:13:36;;;;;;;4.13;2.47;;;;;;;;;;5093094;28;20955;-64
2023/08/10 14:16:03;;;;;;;4.40;2.57;;;;;;;;;;5092849;28;20484;-64
2023/08/10 14:18:30;;;;;;;5.07;2.40;;;;;;;;;;5093075;28;20554;-64
2023/08/10 14:20:57;;;;;;;2.90;2.37;;;;;;;;;;5093387;28;20496;-64
2023/08/10 14:23:25;;;;;;;6.60;2.50;;;;;;;;;;5092851;28;20553;-64
2023/08/10 14:25:52;;;;;;;3.50;2.43;;;;;;;;;;5093261;28;20759;-64
2023/08/10 14:28:20;;;;;;;3.07;2.73;;;;;;;;;;5093367;28;20550;-64
2023/08/10 14:30:48;;;;;;;7.27;2.30;;;;;;;;;;5093197;28;20451;-63
2023/08/10 14:33:15;;;;;;;5.57;2.30;;;;;;;;;;5093089;28;20533;-62
2023/08/10 14:35:43;;;;;;;5.63;2.60;;;;;;;;;;5092898;28;20571;-63
2023/08/10 14:38:10;;;;;;;6.77;2.80;;;;;;;;;;5093614;28;20446;-63
2023/08/10 14:40:37;;;;;;;4.03;1.93;;;;;;;;;;5093125;28;20445;-64
2023/08/10 14:43:04;;;;;;;3.13;2.40;;;;;;;;;;5092947;28;20463;-63
2023/08/10 14:45:32;;;;;;;8.73;2.33;;;;;;;;;;5092766;28;20471;-64
2023/08/10 14:48:02;;;;;;;6.33;3.10;;;;;;;;;;5092037;28;20777;-64
2023/08/10 14:50:29;;;;;;;5.20;2.30;;;;;;;;;;5091069;28;20536;-63